Time;durP1;ratioP1;P1;durP2;ratioP2;P2;SDS_P1;SDS_P2;PMS_P1;PMS_P2;Temp;Humidity;BMP_temperature;BMP_pressure;BME280_temperature;BME280_humidity;BME280_pressure;Samples;Min_cycle;Max_cycle;Signal;HPM_P1;HPM_P2
2021/05/12 00:05:12;;;;;;;15.20;8.80;;;;;;;11.14;74.04;95400.81;4847618;29;20057;-94
2021/05/12 00:07:38;;;;;;;12.90;9.27;;;;;;;11.41;73.46;95440.28;4832699;29;20062;-94
2021/05/12 00:10:05;;;;;;;14.48;9.38;;;;;;;11.36;74.09;95433.56;4832322;29;20041;-94
2021/05/12 00:12:31;;;;;;;14.38;8.65;;;;;;;11.28;73.44;95424.34;4832115;29;20093;-95
2021/05/12 00:14:57;;;;;;;14.13;8.00;;;;;;;11.42;73.07;95444.47;4832237;29;20030;-95
2021/05/12 00:17:23;;;;;;;11.27;7.57;;;;;;;11.37;73.96;95431.59;4831982;29;20090;-94
2021/05/12 00:19:55;;;;;;;10.43;7.07;;;;;;;11.36;74.78;95430.09;4831995;29;20034;-94
2021/05/12 00:24:55;;;;;;;12.93;8.10;;;;;;;11.44;74.06;95428.41;4848446;29;20152;-93
2021/05/12 00:27:20;;;;;;;13.50;7.57;;;;;;;11.22;73.90;95410.00;4831862;29;20462;-95
2021/05/12 00:29:46;;;;;;;17.95;7.70;;;;;;;11.09;73.29;95396.81;4831891;29;20026;-94
2021/05/12 00:32:11;;;;;;;22.98;7.38;;;;;;;11.41;74.48;95446.47;4831821;29;20029;-94
2021/05/12 00:34:36;;;;;;;23.25;7.00;;;;;;;10.87;74.21;95383.06;4831981;29;20064;-93
2021/05/12 00:37:02;;;;;;;10.00;6.57;;;;;;;11.12;74.32;95427.69;4831895;29;20105;-93
2021/05/12 00:39:28;;;;;;;9.18;6.18;;;;;;;11.14;74.80;95447.75;4832626;29;20355;-94
2021/05/12 00:41:54;;;;;;;12.30;6.10;;;;;;;10.74;74.47;95399.75;4832286;29;20379;-94
2021/05/12 00:44:20;;;;;;;10.82;5.82;;;;;;;10.92;74.97;95423.09;4832117;29;20033;-93
2021/05/12 00:46:51;;;;;;;6.43;5.55;;;;;;;10.78;74.33;95418.56;4831754;29;20034;-95
2021/05/12 00:49:17;;;;;;;8.73;6.25;;;;;;;11.07;74.18;95466.44;4831400;29;20034;-94
2021/05/12 00:51:43;;;;;;;12.65;6.38;;;;;;;10.57;75.37;95415.91;4831504;29;20026;-94
2021/05/12 00:54:09;;;;;;;9.05;6.38;;;;;;;10.38;75.27;95377.44;4831447;29;20060;-94
2021/05/12 00:56:38;;;;;;;9.82;6.13;;;;;;;10.88;74.81;95461.34;4831421;29;20334;-95
2021/05/12 00:59:04;;;;;;;7.85;6.43;;;;;;;10.78;75.95;95443.00;4831154;29;20055;-93
2021/05/12 01:01:30;;;;;;;11.05;6.03;;;;;;;10.80;75.43;95424.25;4831295;29;20025;-94
2021/05/12 01:03:55;;;;;;;9.27;6.13;;;;;;;10.60;75.58;95393.22;4831362;29;20090;-94
2021/05/12 01:06:33;;;;;;;7.82;6.10;;;;;;;10.70;76.30;95410.81;4831213;29;20026;-93
2021/05/12 01:08:58;;;;;;;8.88;6.20;;;;;;;10.71;75.76;95422.44;4831274;29;20392;-94
2021/05/12 01:11:24;;;;;;;11.82;6.45;;;;;;;10.30;75.55;95379.13;4831241;29;20065;-94
2021/05/12 01:13:51;;;;;;;11.88;6.68;;;;;;;10.77;76.69;95468.66;4831072;29;20034;-94
2021/05/12 01:16:18;;;;;;;9.27;6.38;;;;;;;10.70;77.22;95473.28;4831061;29;20061;-95
2021/05/12 01:18:44;;;;;;;19.02;7.28;;;;;;;10.80;77.18;95467.69;4830855;29;20030;-94
2021/05/12 01:21:09;;;;;;;38.92;7.68;;;;;;;10.65;77.83;95443.34;4831091;29;20085;-95
2021/05/12 01:23:43;;;;;;;11.60;7.32;;;;;;;10.31;76.37;95415.88;4830852;29;20053;-95
2021/05/12 01:26:13;;;;;;;11.55;6.95;;;;;;;10.59;76.71;95465.03;4830929;29;20030;-94
2021/05/12 01:28:44;;;;;;;14.03;7.33;;;;;;;10.63;76.51;95456.69;4830929;29;20052;-94
2021/05/12 01:31:14;;;;;;;11.63;6.65;;;;;;;10.27;76.31;95411.88;4830959;29;20033;-93
2021/05/12 01:33:40;;;;;;;12.43;6.75;;;;;;;10.20;76.94;95411.06;4830908;29;20446;-94
2021/05/12 01:36:06;;;;;;;9.65;6.93;;;;;;;10.42;77.28;95456.72;4830890;29;20044;-94
2021/05/12 01:38:33;;;;;;;8.60;6.28;;;;;;;10.04;77.47;95408.91;4830688;29;20082;-95
2021/05/12 01:41:01;;;;;;;13.80;5.85;;;;;;;9.65;77.66;95363.09;4830834;29;20037;-95
2021/05/12 01:43:26;;;;;;;9.90;6.00;;;;;;;9.84;78.06;95387.97;4830580;29;20026;-95
2021/05/12 01:45:52;;;;;;;7.30;5.38;;;;;;;9.75;78.60;95355.56;4830631;29;20028;-94
2021/05/12 01:48:18;;;;;;;9.82;6.00;;;;;;;10.35;78.14;95443.56;4830679;29;20057;-93
2021/05/12 01:50:45;;;;;;;10.85;5.97;;;;;;;10.41;78.64;95451.78;4830696;29;20026;-94
2021/05/12 01:53:11;;;;;;;9.20;5.47;;;;;;;10.01;77.19;95398.25;4830502;29;20026;-94
2021/05/12 01:55:37;;;;;;;11.05;5.90;;;;;;;9.61;78.35;95338.16;4830531;29;20037;-94
2021/05/12 01:58:03;;;;;;;6.32;5.15;;;;;;;10.02;78.74;95400.50;4846508;29;20033;-94
2021/05/12 02:00:32;;;;;;;11.23;5.50;;;;;;;9.57;77.41;95345.00;4830470;29;20034;-94
2021/05/12 02:02:57;;;;;;;12.00;5.65;;;;;;;9.92;78.99;95401.88;4830415;29;20025;-94
2021/05/12 02:05:26;;;;;;;11.38;5.85;;;;;;;9.43;79.20;95362.81;4830369;29;20041;-95
2021/05/12 02:07:53;;;;;;;8.88;5.40;;;;;;;9.93;78.42;95403.34;4830376;29;20086;-95
2021/05/12 02:10:19;;;;;;;7.63;5.20;;;;;;;9.98;78.74;95397.25;4830246;29;20026;-94
2021/05/12 02:12:45;;;;;;;19.55;6.20;;;;;;;9.78;77.70;95383.69;4830275;29;20155;-94
2021/05/12 02:15:12;;;;;;;10.30;5.40;;;;;;;9.81;78.75;95372.66;4830448;29;20025;-94
2021/05/12 02:17:38;;;;;;;9.30;5.32;;;;;;;9.93;78.50;95417.66;4830134;29;20041;-94
2021/05/12 02:20:07;;;;;;;10.82;5.28;;;;;;;10.13;79.16;95441.31;4830124;29;20069;-94
2021/05/12 02:22:33;;;;;;;9.88;5.50;;;;;;;10.16;77.80;95439.63;4830028;29;20057;-95
2021/05/12 02:24:58;;;;;;;7.65;5.07;;;;;;;9.34;77.48;95339.31;4830202;29;20029;-93
2021/05/12 02:27:23;;;;;;;6.75;5.35;;;;;;;9.57;78.20;95362.00;4830612;29;20177;-94
2021/05/12 02:29:49;;;;;;;9.00;5.18;;;;;;;9.64;77.93;95393.38;4833968;29;20041;-94
2021/05/12 02:32:15;;;;;;;8.02;4.90;;;;;;;9.97;78.10;95442.63;4833889;29;20034;-94
2021/05/12 02:34:40;;;;;;;8.70;5.40;;;;;;;9.73;78.06;95404.09;4833621;29;20034;-94
2021/05/12 02:37:06;;;;;;;5.40;4.70;;;;;;;9.92;77.83;95431.72;4833690;29;20041;-94
2021/05/12 02:39:32;;;;;;;9.00;5.38;;;;;;;9.56;77.38;95382.19;4833680;29;20109;-96
2021/05/12 02:41:58;;;;;;;7.75;4.85;;;;;;;9.46;79.12;95359.16;4833665;29;20044;-94
2021/05/12 02:44:23;;;;;;;7.10;4.63;;;;;;;9.70;78.21;95408.50;4833551;29;20450;-94
2021/05/12 02:46:49;;;;;;;6.88;4.70;;;;;;;9.88;79.26;95415.63;4833478;29;20121;-94
2021/05/12 02:49:14;;;;;;;7.93;4.88;;;;;;;9.61;77.61;95372.66;4833458;29;20105;-94
2021/05/12 02:55:03;;;;;;;5.88;4.63;;;;;;;9.35;78.65;95351.63;4849723;29;20056;-95
2021/05/12 02:57:28;;;;;;;8.45;5.00;;;;;;;9.53;78.22;95366.88;4833258;29;20029;-94
2021/05/12 02:59:54;;;;;;;6.32;4.63;;;;;;;9.52;77.58;95362.69;4833259;29;20312;-95
2021/05/12 03:02:20;;;;;;;6.40;4.65;;;;;;;9.53;78.58;95387.81;4833312;29;20038;-94
2021/05/12 03:04:45;;;;;;;13.32;4.97;;;;;;;9.38;78.31;95360.78;4838308;29;20030;-95
2021/05/12 03:07:12;;;;;;;9.07;4.65;;;;;;;9.23;78.58;95344.56;4836214;29;20034;-95
2021/05/12 03:09:38;;;;;;;5.65;4.43;;;;;;;9.37;77.68;95379.00;4833347;29;20406;-95
2021/05/12 03:15:26;;;;;;;8.57;6.35;;;;;;;9.51;78.80;95374.00;4850108;29;20387;-94
2021/05/12 03:17:53;;;;;;;9.02;5.30;;;;;;;9.12;78.50;95326.22;4832866;29;20030;-94
2021/05/12 03:20:21;;;;;;;11.18;5.13;;;;;;;9.41;79.31;95355.16;4833253;29;20030;-94
2021/05/12 03:22:47;;;;;;;6.80;5.82;;;;;;;9.47;79.24;95349.06;4832679;29;20065;-94
2021/05/12 03:25:14;;;;;;;9.30;7.15;;;;;;;9.99;78.80;95415.00;4832891;29;20045;-93
2021/05/12 03:27:40;;;;;;;8.85;6.43;;;;;;;9.68;78.40;95388.50;4832881;29;20037;-94
2021/05/12 03:30:12;;;;;;;7.90;5.10;;;;;;;9.39;79.26;95351.44;4832934;29;20030;-94
2021/05/12 03:32:38;;;;;;;7.95;5.38;;;;;;;9.47;78.42;95357.94;4832839;29;20034;-93
2021/05/12 03:35:05;;;;;;;7.75;5.47;;;;;;;9.72;78.71;95410.75;4832826;29;20431;-93
2021/05/12 03:37:31;;;;;;;7.72;5.43;;;;;;;9.69;79.43;95403.53;4832723;29;20034;-94
2021/05/12 03:39:56;;;;;;;9.93;5.70;;;;;;;9.58;79.52;95401.44;4831367;29;20135;-94
2021/05/12 03:42:22;;;;;;;8.63;5.85;;;;;;;9.15;79.51;95330.66;4833109;29;20041;-94
2021/05/12 03:44:47;;;;;;;10.38;6.35;;;;;;;9.51;79.06;95374.00;4832683;29;20377;-93
2021/05/12 03:47:13;;;;;;;11.10;8.32;;;;;;;9.15;79.26;95319.09;4832559;29;20037;-94
2021/05/12 03:49:38;;;;;;;11.88;6.32;;;;;;;9.62;77.71;95357.88;4832442;29;20029;-93
2021/05/12 03:55:26;;;;;;;11.43;6.45;;;;;;;9.14;77.85;95323.03;4849216;29;20052;-95
2021/05/12 03:57:53;;;;;;;9.50;6.78;;;;;;;9.57;78.40;95372.84;4832647;29;20026;-94
2021/05/12 04:00:19;;;;;;;9.30;6.63;;;;;;;9.43;79.07;95368.25;4832367;29;20062;-92
2021/05/12 04:02:44;;;;;;;11.35;6.15;;;;;;;9.60;78.63;95396.31;4821289;29;20034;-94
2021/05/12 04:05:12;;;;;;;10.10;5.90;;;;;;;9.42;79.12;95345.78;4829978;29;20023;-93
2021/05/12 04:07:37;;;;;;;7.90;6.38;;;;;;;9.76;79.92;95405.88;4814068;29;20070;-94
2021/05/12 04:10:05;;;;;;;8.43;5.47;;;;;;;9.61;79.04;95348.25;4814338;29;20083;-95
2021/05/12 04:12:31;;;;;;;10.07;5.35;;;;;;;9.75;78.12;95357.53;4813859;29;20065;-94
2021/05/12 04:14:56;;;;;;;12.10;5.57;;;;;;;9.74;77.93;95335.09;4814117;29;20054;-95
2021/05/12 04:17:21;;;;;;;11.38;5.90;;;;;;;9.70;77.72;95348.88;4814125;29;20045;-94
2021/05/12 04:19:47;;;;;;;14.32;5.43;;;;;;;9.73;77.47;95347.16;4813880;29;20327;-93
2021/05/12 04:22:13;;;;;;;13.88;5.95;;;;;;;9.95;78.09;95377.22;4813638;29;20058;-95
2021/05/12 04:24:40;;;;;;;11.77;5.78;;;;;;;10.02;77.16;95388.91;4813914;29;20030;-94
2021/05/12 04:27:05;;;;;;;9.30;5.50;;;;;;;9.48;78.18;95313.38;4813752;29;20026;-94
2021/05/12 04:29:31;;;;;;;9.93;5.43;;;;;;;9.61;77.73;95313.75;4813745;29;20037;-94
2021/05/12 04:31:56;;;;;;;8.90;5.63;;;;;;;9.69;77.09;95330.34;4813877;29;20054;-95
2021/05/12 04:34:21;;;;;;;11.25;5.72;;;;;;;9.97;76.78;95355.81;4814140;29;20049;-95
2021/05/12 04:36:47;;;;;;;7.13;5.22;;;;;;;10.11;77.62;95373.22;4813858;29;20037;-95
2021/05/12 04:39:13;;;;;;;8.40;5.63;;;;;;;10.10;76.27;95354.72;4814234;29;20436;-95
2021/05/12 04:41:41;;;;;;;8.63;5.60;;;;;;;10.46;76.03;95397.53;4813793;29;20030;-95
2021/05/12 04:44:06;;;;;;;10.70;5.70;;;;;;;10.55;75.79;95398.59;4814577;29;20035;-95
2021/05/12 04:47:00;;;;;;;10.52;6.63;;;;;;;10.16;76.65;95322.94;4825807;29;20041;-96
2021/05/12 04:49:26;;;;;;;9.45;6.55;;;;;;;9.32;76.46;95190.00;4842693;29;20133;-96
2021/05/12 04:55:14;;;;;;;20.70;14.93;;;;;;;10.66;75.11;95347.84;4817638;29;20048;-92
2021/05/12 04:57:39;;;;;;;16.83;10.48;;;;;;;10.64;76.86;95325.09;4814232;29;20030;-95
2021/05/12 05:00:05;;;;;;;17.40;10.40;;;;;;;11.14;75.36;95384.50;4813867;29;20026;-95
2021/05/12 05:02:31;;;;;;;15.73;9.23;;;;;;;10.96;75.15;95334.72;4813866;29;20034;-92
2021/05/12 05:04:56;;;;;;;16.50;9.27;;;;;;;11.00;75.54;95334.50;4814845;29;20023;-96
2021/05/12 05:07:22;;;;;;;25.40;11.95;;;;;;;11.04;75.48;95339.72;4818825;29;20090;-96
2021/05/12 05:09:47;;;;;;;26.20;11.18;;;;;;;11.08;74.39;95315.78;4819421;29;20027;-95
2021/05/12 05:12:13;;;;;;;21.42;11.68;;;;;;;11.14;74.64;95317.31;4813452;29;20116;-94
2021/05/12 05:14:39;;;;;;;21.33;11.57;;;;;;;11.38;73.91;95340.66;4814169;29;20446;-94
2021/05/12 05:17:07;;;;;;;23.23;11.35;;;;;;;10.51;74.21;95197.19;4833895;29;20049;-96
2021/05/12 05:19:32;;;;;;;17.92;10.70;;;;;;;11.11;74.01;95263.91;4817584;29;20031;-96
2021/05/12 05:22:03;;;;;;;12.45;9.63;;;;;;;11.74;73.53;95345.25;4838544;29;20031;-94
2021/05/12 05:24:29;;;;;;;17.10;9.57;;;;;;;11.45;72.99;95289.28;4813617;29;20058;-95
2021/05/12 05:26:54;;;;;;;21.25;9.90;;;;;;;11.88;72.97;95326.53;4816687;29;20046;-96
2021/05/12 05:29:20;;;;;;;16.42;9.13;;;;;;;11.92;72.83;95332.47;4814986;29;20023;-96
2021/05/12 05:31:45;;;;;;;25.52;14.23;;;;;;;11.72;72.67;95287.16;4812862;29;20136;-96
2021/05/12 05:34:10;;;;;;;21.60;14.40;;;;;;;12.06;72.79;95323.38;4814210;29;20305;-95
2021/05/12 05:36:38;;;;;;;15.20;9.02;;;;;;;12.11;71.94;95319.19;4812613;29;20438;-94
2021/05/12 05:39:03;;;;;;;11.95;7.95;;;;;;;12.15;71.92;95328.59;4812713;29;20087;-94
2021/05/12 05:41:29;;;;;;;20.35;8.43;;;;;;;12.10;71.66;95314.97;4812502;29;20034;-94
2021/05/12 05:43:54;;;;;;;22.65;7.95;;;;;;;11.99;70.86;95280.31;4813104;29;20113;-95
2021/05/12 05:46:20;;;;;;;9.55;6.82;;;;;;;12.36;69.98;95320.94;4813756;29;20391;-95
2021/05/12 05:48:46;;;;;;;12.05;6.10;;;;;;;12.49;69.91;95323.19;4813122;29;20027;-94
2021/05/12 05:51:11;;;;;;;8.68;6.05;;;;;;;12.57;69.66;95316.00;4813261;29;20121;-95
2021/05/12 05:53:36;;;;;;;10.65;5.43;;;;;;;12.45;68.89;95279.84;4814106;29;20070;-95
2021/05/12 05:56:02;;;;;;;10.13;5.72;;;;;;;12.53;68.98;95282.84;4816329;29;20064;-94
2021/05/12 05:58:27;;;;;;;10.35;5.80;;;;;;;13.11;69.11;95354.63;4812991;29;20042;-94
2021/05/12 06:00:53;;;;;;;10.98;5.60;;;;;;;12.68;69.36;95283.31;4812440;29;20022;-95
2021/05/12 06:03:18;;;;;;;7.32;5.30;;;;;;;12.98;68.83;95315.47;4811617;29;20129;-94
2021/05/12 06:05:46;;;;;;;12.00;6.47;;;;;;;12.77;67.26;95268.69;4812376;29;20030;-95
2021/05/12 06:08:11;;;;;;;13.75;6.07;;;;;;;13.40;66.90;95344.41;4812336;29;20031;-94
2021/05/12 06:10:37;;;;;;;12.75;6.10;;;;;;;13.43;66.39;95316.16;4812319;29;20487;-95
2021/05/12 06:13:03;;;;;;;11.15;6.03;;;;;;;13.48;67.70;95329.03;4812745;29;20035;-94
2021/05/12 06:15:29;;;;;;;14.95;6.60;;;;;;;13.25;66.75;95283.97;4812401;29;20048;-94
2021/05/12 06:17:54;;;;;;;12.15;6.68;;;;;;;13.71;65.82;95337.88;4812615;29;20163;-94
2021/05/12 06:20:20;;;;;;;11.90;5.80;;;;;;;13.36;66.55;95265.56;4812284;29;20030;-93
2021/05/12 06:22:45;;;;;;;12.32;5.90;;;;;;;13.84;65.79;95307.28;4813078;29;20054;-94
2021/05/12 06:25:12;;;;;;;10.05;5.90;;;;;;;13.71;65.66;95277.84;4815435;29;20083;-95
2021/05/12 06:27:38;;;;;;;9.82;5.63;;;;;;;13.74;65.32;95271.38;4820104;29;20034;-95
2021/05/12 06:30:08;;;;;;;12.30;5.57;;;;;;;12.81;65.48;95127.50;4823649;29;20055;-96
2021/05/12 06:32:34;;;;;;;8.98;5.65;;;;;;;13.44;65.00;95192.19;4822084;29;20034;-94
2021/05/12 06:35:02;;;;;;;8.80;5.80;;;;;;;13.46;64.20;95183.47;4820048;29;20058;-95
2021/05/12 06:37:29;;;;;;;10.25;5.25;;;;;;;13.32;63.64;95141.69;4805392;29;20041;-95
2021/05/12 06:39:55;;;;;;;15.82;6.03;;;;;;;14.02;64.78;95227.53;4819143;29;20037;-95
2021/05/12 06:42:20;;;;;;;12.35;5.25;;;;;;;14.11;64.46;95221.00;4818907;29;20034;-94
2021/05/12 06:44:46;;;;;;;12.18;5.72;;;;;;;14.13;63.34;95213.81;4814491;29;20038;-94
2021/05/12 06:47:11;;;;;;;11.57;5.28;;;;;;;14.80;63.13;95289.00;4812619;29;20096;-94
2021/05/12 06:49:37;;;;;;;11.30;5.35;;;;;;;14.47;63.72;95234.63;4812171;29;20404;-94
2021/05/12 06:55:25;;;;;;;9.55;4.78;;;;;;;14.85;62.10;95247.22;4827888;29;20045;-94
2021/05/12 06:57:51;;;;;;;7.70;4.57;;;;;;;15.20;62.54;95270.97;4811627;29;20026;-94
2021/05/12 07:00:18;;;;;;;7.30;4.30;;;;;;;15.17;62.32;95249.38;4811533;29;20031;-94
2021/05/12 07:02:46;;;;;;;8.85;4.22;;;;;;;15.14;61.90;95234.03;4811552;29;20062;-94
2021/05/12 07:05:14;;;;;;;8.52;4.28;;;;;;;15.36;61.91;95255.63;4811666;29;20052;-94
2021/05/12 07:07:43;;;;;;;5.85;4.25;;;;;;;15.39;61.82;95245.66;4811641;29;20054;-93
2021/05/12 07:10:10;;;;;;;9.30;4.22;;;;;;;15.29;61.40;95223.41;4811481;29;20120;-94
2021/05/12 07:12:36;;;;;;;14.65;4.88;;;;;;;15.49;61.24;95224.88;4811551;29;20034;-95
2021/05/12 07:15:03;;;;;;;10.00;5.05;;;;;;;15.66;60.58;95232.94;4813625;29;20041;-94
2021/05/12 07:17:29;;;;;;;15.50;5.28;;;;;;;15.59;61.78;95189.69;4814873;29;20057;-96
2021/05/12 07:19:55;;;;;;;15.48;5.82;;;;;;;15.70;61.14;95187.56;4814773;29;20062;-95
2021/05/12 07:22:21;;;;;;;7.85;4.68;;;;;;;16.29;61.88;95250.66;4814616;29;20080;-96
2021/05/12 07:24:47;;;;;;;9.30;4.68;;;;;;;16.23;61.44;95231.59;4814768;29;20419;-93
2021/05/12 07:27:12;;;;;;;7.68;4.70;;;;;;;16.11;60.78;95202.91;4814796;29;20040;-94
2021/05/12 07:29:38;;;;;;;9.15;5.30;;;;;;;16.31;60.80;95212.56;4814787;29;20034;-94
2021/05/12 07:32:04;;;;;;;9.25;5.05;;;;;;;16.69;61.23;95243.31;4814897;29;20387;-94
2021/05/12 07:34:29;;;;;;;9.15;4.47;;;;;;;16.15;59.69;95139.63;4814429;29;20030;-92
2021/05/12 07:36:55;;;;;;;19.27;13.85;;;;;;;16.61;59.47;95192.38;4814819;29;20095;-93
2021/05/12 07:39:21;;;;;;;10.40;8.07;;;;;;;16.89;59.10;95205.63;4814722;29;20034;-95
2021/05/12 07:45:13;;;;;;;6.68;4.13;;;;;;;17.24;56.43;95220.88;4830818;29;20099;-94
2021/05/12 07:47:38;;;;;;;6.03;3.60;;;;;;;17.43;55.65;95237.97;4814566;29;20041;-94
2021/05/12 07:50:09;;;;;;;8.45;3.60;;;;;;;17.50;55.31;95237.31;4814597;29;20459;-95
2021/05/12 07:52:35;;;;;;;10.13;3.83;;;;;;;17.65;55.15;95238.78;4814527;29;20095;-93
2021/05/12 07:55:00;;;;;;;5.22;3.30;;;;;;;17.30;53.86;95166.66;4814396;29;20030;-92
2021/05/12 07:57:26;;;;;;;5.95;3.17;;;;;;;17.60;53.74;95182.72;4814262;29;20069;-92
2021/05/12 07:59:52;;;;;;;4.70;3.17;;;;;;;18.10;54.75;95221.34;4814452;29;20027;-92
2021/05/12 08:02:17;;;;;;;9.50;3.33;;;;;;;17.90;52.57;95173.38;4814250;29;20033;-93
2021/05/12 08:04:43;;;;;;;8.10;2.92;;;;;;;18.07;52.71;95160.00;4822030;29;20030;-94
2021/05/12 08:07:08;;;;;;;8.32;2.90;;;;;;;18.20;52.71;95170.16;4832192;29;20356;-93
2021/05/12 08:09:34;;;;;;;7.65;3.20;;;;;;;18.24;51.99;95167.81;4832142;29;20034;-93
2021/05/12 08:12:00;;;;;;;8.25;3.03;;;;;;;18.24;52.50;95154.81;4832446;29;20315;-95
2021/05/12 08:14:25;;;;;;;7.47;2.83;;;;;;;18.32;52.22;95149.38;4832199;29;20029;-94
2021/05/12 08:16:51;;;;;;;7.88;2.92;;;;;;;18.42;50.71;95144.88;4832009;29;20033;-94
2021/05/12 08:19:17;;;;;;;5.32;3.13;;;;;;;18.67;50.52;95159.00;4831926;29;20116;-94
2021/05/12 08:21:44;;;;;;;7.93;3.38;;;;;;;18.72;51.10;95154.66;4831912;29;20053;-93
2021/05/12 08:24:10;;;;;;;6.95;2.97;;;;;;;18.80;51.34;95152.66;4832094;29;20133;-93
2021/05/12 08:26:36;;;;;;;5.30;2.70;;;;;;;18.96;51.44;95142.50;4831292;29;20068;-94
2021/05/12 08:29:04;;;;;;;7.80;2.50;;;;;;;19.16;50.59;95149.19;4831887;29;20021;-94
2021/05/12 08:31:30;;;;;;;5.97;3.10;;;;;;;19.45;49.83;95177.41;4831762;29;20340;-95
2021/05/12 08:33:56;;;;;;;4.85;2.67;;;;;;;19.20;50.33;95131.06;4831846;29;20122;-94
2021/05/12 08:36:22;;;;;;;5.20;2.83;;;;;;;19.33;49.98;95127.44;4831103;29;20113;-95
2021/05/12 08:38:47;;;;;;;5.30;2.95;;;;;;;19.34;50.09;95102.13;4813466;29;20083;-93
2021/05/12 08:41:19;;;;;;;3.42;2.13;;;;;;;19.45;47.51;95089.31;4813481;29;20026;-94
2021/05/12 08:43:46;;;;;;;5.20;2.30;;;;;;;20.13;46.87;95161.09;4813387;29;20061;-94
2021/05/12 08:46:14;;;;;;;13.18;3.00;;;;;;;20.11;45.70;95138.09;4813570;29;20030;-95
2021/05/12 08:48:41;;;;;;;3.97;1.80;;;;;;;20.40;45.21;95155.22;4813358;29;20352;-95
2021/05/12 08:51:10;;;;;;;2.70;1.67;;;;;;;20.35;42.91;95118.28;4813201;29;20079;-96
2021/05/12 08:53:36;;;;;;;5.53;2.00;;;;;;;20.63;42.35;95147.69;4813255;29;20416;-95
2021/05/12 08:56:03;;;;;;;6.60;3.50;;;;;;;20.80;42.80;95149.88;4813152;29;20328;-95
2021/05/12 08:58:28;;;;;;;4.72;2.28;;;;;;;20.64;42.86;95113.31;4813172;29;20030;-95
2021/05/12 09:00:55;;;;;;;3.92;2.10;;;;;;;20.76;42.34;95113.63;4813249;29;20041;-94
2021/05/12 09:03:21;;;;;;;6.22;2.55;;;;;;;20.72;45.41;95107.03;4813157;29;20431;-96
2021/05/12 09:05:47;;;;;;;9.55;2.08;;;;;;;21.08;44.20;95145.38;4813083;29;20058;-95
2021/05/12 09:08:13;;;;;;;3.20;1.90;;;;;;;21.12;40.73;95140.94;4813079;29;20328;-95
2021/05/12 09:10:39;;;;;;;5.10;1.60;;;;;;;20.99;41.57;95104.59;4812899;29;20033;-96
2021/05/12 09:13:04;;;;;;;2.97;2.00;;;;;;;21.17;41.56;95123.47;4812958;29;20038;-96
2021/05/12 09:15:31;;;;;;;3.70;1.90;;;;;;;21.13;41.48;95083.72;4812810;29;20030;-95
2021/05/12 09:18:01;;;;;;;3.42;1.75;;;;;;;21.61;40.94;95125.88;4812726;29;20030;-94
2021/05/12 09:20:37;;;;;;;3.30;2.35;;;;;;;21.70;40.31;95132.81;4812926;29;20343;-95
2021/05/12 09:23:16;;;;;;;5.25;2.35;;;;;;;21.81;38.61;95126.88;4812719;29;20046;-96
2021/05/12 09:25:53;;;;;;;5.13;2.00;;;;;;;21.53;39.24;95060.94;4812707;29;20031;-95
2021/05/12 09:28:21;;;;;;;7.78;2.00;;;;;;;21.68;39.55;95086.44;4812704;29;20026;-96
2021/05/12 09:30:49;;;;;;;3.72;1.63;;;;;;;21.76;38.91;95075.31;4812628;29;20104;-95
2021/05/12 09:33:27;;;;;;;5.63;1.70;;;;;;;22.07;35.64;95111.78;4812623;29;20045;-95
2021/05/12 09:35:53;;;;;;;2.30;1.40;;;;;;;22.02;36.12;95057.44;4812621;29;20038;-95
2021/05/12 09:38:37;;;;;;;4.00;1.58;;;;;;;22.47;36.59;95094.31;4812520;29;20038;-95
2021/05/12 09:41:05;;;;;;;5.78;2.35;;;;;;;22.57;37.05;95091.66;4812495;29;20083;-95
2021/05/12 09:43:33;;;;;;;4.30;2.20;;;;;;;22.61;38.22;95095.47;4812508;29;20060;-96
2021/05/12 09:46:38;;;;;;;4.85;2.28;;;;;;;22.56;35.04;95082.63;4812468;29;20324;-94
2021/05/12 09:49:04;;;;;;;4.55;1.80;;;;;;;22.73;36.36;95081.91;4799634;29;20046;-95
2021/05/12 09:51:32;;;;;;;3.22;1.80;;;;;;;22.93;37.10;95082.81;4812378;29;20056;-95
2021/05/12 09:54:01;;;;;;;3.65;1.83;;;;;;;23.07;36.26;95086.72;4812467;29;20412;-95
2021/05/12 09:56:55;;;;;;;3.53;1.65;;;;;;;23.17;37.13;95086.78;4812313;29;20038;-95
2021/05/12 09:59:25;;;;;;;5.15;1.90;;;;;;;23.39;35.53;95085.78;4812361;29;20442;-95
2021/05/12 10:01:52;;;;;;;5.45;1.83;;;;;;;23.36;36.14;95047.41;4812471;29;20091;-94
2021/05/12 10:07:17;;;;;;;3.75;2.10;;;;;;;23.46;35.14;95043.41;4828537;29;20034;-95
2021/05/12 10:09:44;;;;;;;4.65;2.60;;;;;;;23.70;36.16;95052.13;4812149;29;20031;-95
2021/05/12 10:12:16;;;;;;;3.72;2.33;;;;;;;23.88;33.74;95048.00;4811949;29;20027;-95
2021/05/12 10:14:51;;;;;;;2.90;1.77;;;;;;;24.21;34.82;95078.16;4812174;29;20089;-95
2021/05/12 10:17:18;;;;;;;5.10;2.58;;;;;;;24.12;35.01;95040.75;4812081;29;20034;-96
2021/05/12 10:19:45;;;;;;;4.32;2.35;;;;;;;24.56;34.13;95070.38;4811872;29;20084;-94
2021/05/12 10:22:12;;;;;;;7.43;2.45;;;;;;;24.52;31.48;95048.63;4811883;29;20030;-95
2021/05/12 10:24:40;;;;;;;3.47;1.80;;;;;;;24.58;31.56;95064.25;4811903;29;20041;-94
2021/05/12 10:27:15;;;;;;;3.55;2.20;;;;;;;24.52;31.45;95022.91;4812009;29;20026;-95
2021/05/12 10:29:47;;;;;;;4.47;1.98;;;;;;;24.70;31.84;95027.00;4811981;29;20497;-95
2021/05/12 10:32:22;;;;;;;6.93;2.42;;;;;;;24.97;30.74;95056.66;4812048;29;20062;-95
2021/05/12 10:34:58;;;;;;;4.03;2.17;;;;;;;25.10;31.90;95041.63;4812336;29;20450;-96
2021/05/12 10:37:27;;;;;;;4.22;2.10;;;;;;;25.11;32.17;95020.88;4812772;29;20097;-95
2021/05/12 10:40:20;;;;;;;2.97;1.70;;;;;;;25.38;31.52;95040.84;4813055;29;20121;-96
2021/05/12 10:43:16;;;;;;;7.07;1.50;;;;;;;25.61;30.19;95040.34;4802545;29;20038;-94
2021/05/12 10:45:43;;;;;;;3.25;1.50;;;;;;;25.80;30.37;95045.16;4827719;29;20038;-95
2021/05/12 10:48:32;;;;;;;4.75;1.65;;;;;;;25.92;29.38;95043.19;4811895;29;20443;-94
2021/05/12 10:51:01;;;;;;;8.13;2.17;;;;;;;25.91;29.59;94999.31;4815491;29;20038;-94
2021/05/12 10:53:44;;;;;;;3.80;1.77;;;;;;;26.35;28.60;95037.69;4815396;29;20026;-95
2021/05/12 11:31:42;;;;;;;2.08;1.70;;;;;;;27.16;23.62;94944.75;5114602;24;20062;-96
2021/05/12 11:34:19;;;;;;;2.90;1.50;;;;;;;27.03;23.34;94923.75;4815997;29;20046;-96
2021/05/12 11:36:44;;;;;;;4.20;1.30;;;;;;;27.21;23.85;94940.16;4798442;29;20041;-96
2021/05/12 11:39:10;;;;;;;2.15;1.23;;;;;;;27.43;23.28;94930.38;4798936;29;20031;-96
2021/05/12 11:41:35;;;;;;;4.10;1.50;;;;;;;27.21;25.33;94860.09;4802519;29;20035;-95
2021/05/12 11:44:02;;;;;;;4.82;1.80;;;;;;;27.62;23.16;94910.63;4813422;29;20038;-96
2021/05/12 11:46:40;;;;;;;3.17;1.40;;;;;;;28.30;23.67;94929.22;4821204;29;20050;-96
2021/05/12 11:49:09;;;;;;;2.03;1.33;;;;;;;27.98;25.06;94922.50;4835869;29;20034;-94
2021/05/12 11:51:44;;;;;;;4.22;1.42;;;;;;;28.20;23.75;94937.00;4829936;29;20034;-95
2021/05/12 11:54:17;;;;;;;1.52;1.20;;;;;;;28.63;24.62;94931.78;4807619;29;20030;-95
2021/05/12 11:56:44;;;;;;;3.50;1.55;;;;;;;28.37;21.64;94950.56;4814114;29;20065;-94
2021/05/12 11:59:19;;;;;;;1.92;1.33;;;;;;;28.85;24.17;94960.22;4799798;29;20416;-95
2021/05/12 12:01:48;;;;;;;4.28;1.45;;;;;;;28.17;24.26;94908.25;4795176;29;20031;-96
2021/05/12 12:04:20;;;;;;;2.45;1.20;;;;;;;27.95;23.34;94901.41;4796041;29;20042;-94
2021/05/12 12:06:47;;;;;;;3.47;1.40;;;;;;;28.20;24.41;94912.63;4796124;29;20188;-95
2021/05/12 12:09:23;;;;;;;4.05;1.52;;;;;;;28.67;24.26;94954.34;4798403;29;20027;-96
2021/05/12 12:15:13;;;;;;;2.67;1.30;;;;;;;27.80;24.09;94955.59;4818707;29;20037;-96
2021/05/12 12:17:38;;;;;;;2.17;1.10;;;;;;;28.34;22.15;94954.59;4800909;29;20040;-96
2021/05/12 12:20:06;;;;;;;1.25;1.00;;;;;;;28.03;22.45;94923.47;4815148;29;20113;-95
2021/05/12 12:22:32;;;;;;;1.60;0.90;;;;;;;27.63;22.45;94951.09;4818462;29;20078;-96
2021/05/12 12:25:19;;;;;;;4.47;2.50;;;;;;;27.24;23.85;94922.97;4822868;29;20030;-96
2021/05/12 12:27:45;;;;;;;3.30;1.55;;;;;;;26.93;25.82;94900.84;4830253;29;20030;-96
2021/05/12 12:30:15;;;;;;;2.65;1.23;;;;;;;26.84;25.13;94905.19;4813769;29;20045;-95
2021/05/12 12:32:41;;;;;;;1.87;1.20;;;;;;;26.33;22.60;94879.72;4802506;29;20117;-96
2021/05/12 12:35:08;;;;;;;2.90;1.02;;;;;;;26.58;26.02;94909.84;4810585;29;20279;-95
2021/05/12 12:37:38;;;;;;;3.22;1.17;;;;;;;26.47;22.95;94909.78;4795844;29;20035;-94
2021/05/12 12:40:07;;;;;;;3.10;1.60;;;;;;;26.59;24.50;94930.06;4795952;29;20034;-95
2021/05/12 12:42:45;;;;;;;4.07;1.50;;;;;;;26.55;24.08;94933.31;4796967;29;20031;-95